Time;durP1;ratioP1;P1;durP2;ratioP2;P2;SDS_P1;SDS_P2;PMS_P1;PMS_P2;Temp;Humidity;BMP_temperature;BMP_pressure;BME280_temperature;BME280_humidity;BME280_pressure;Samples;Min_cycle;Max_cycle;Signal;HPM_P1;HPM_P2
2021/08/23 00:01:23;;;;;;;;;;;;;;;-142.75;92.69;76985.66;5060836;28;19960;-82
2021/08/23 00:03:48;;;;;;;;;;;;;;;-142.75;92.89;76995.50;4996149;28;19937;-83
2021/08/23 00:06:13;;;;;;;;;;;;;;;-142.75;93.23;76991.56;5074994;28;19913;-80
2021/08/23 00:08:38;;;;;;;;;;;;;;;-142.75;93.21;76997.47;5073796;28;19951;-82
2021/08/23 00:11:04;;;;;;;;;;;;;;;-142.75;93.46;76995.50;5073135;28;19919;-80
2021/08/23 00:13:29;;;;;;;;;;;;;;;-142.75;93.46;76993.53;5001040;28;19922;-82
2021/08/23 00:15:55;;;;;;;;;;;;;;;-142.75;93.55;77003.38;5003544;28;19918;-81
2021/08/23 00:18:20;;;;;;;;;;;;;;;-142.75;93.64;76999.44;5071845;28;19913;-81
2021/08/23 00:20:51;;;;;;;;;;;;;;;-142.75;93.69;76999.44;5003773;28;20386;-81
2021/08/23 00:23:16;;;;;;;;;;;;;;;-142.75;93.65;76991.56;5072654;28;19958;-81
2021/08/23 00:25:42;;;;;;;;;;;;;;;-142.75;93.58;76997.47;5003486;28;19917;-81
2021/08/23 00:28:08;;;;;;;;;;;;;;;-142.75;93.61;76989.59;5070549;28;19920;-83
2021/08/23 00:30:33;;;;;;;;;;;;;;;-142.75;93.62;76995.50;5067185;28;20289;-81
2021/08/23 00:32:58;;;;;;;;;;;;;;;-142.75;93.76;76995.50;5000003;28;20007;-80
2021/08/23 00:35:24;;;;;;;;;;;;;;;-142.75;93.73;76999.44;5000410;28;19927;-83
2021/08/23 00:37:50;;;;;;;;;;;;;;;-142.75;93.81;76999.44;4997834;28;19914;-81
2021/08/23 00:40:15;;;;;;;;;;;;;;;-142.75;93.96;77003.38;5063713;28;19914;-83
2021/08/23 00:42:41;;;;;;;;;;;;;;;-142.75;94.03;77003.38;5076543;28;19914;-82
2021/08/23 00:45:06;;;;;;;;;;;;;;;-142.75;94.00;77007.31;5068374;28;19949;-79
2021/08/23 00:47:32;;;;;;;;;;;;;;;-142.75;93.64;76987.63;5079828;28;19996;-82
2021/08/23 00:49:57;;;;;;;;;;;;;;;-142.75;93.31;76987.63;5000687;28;19921;-82
2021/08/23 00:52:23;;;;;;;;;;;;;;;-142.75;92.79;76967.94;5004178;28;19922;-81
2021/08/23 00:54:48;;;;;;;;;;;;;;;-142.75;92.38;76971.88;5074237;28;19953;-80
2021/08/23 00:57:13;;;;;;;;;;;;;;;-142.75;92.01;76967.94;5073269;28;20375;-82
2021/08/23 00:59:40;;;;;;;;;;;;;;;-142.75;91.70;76971.88;5067005;28;20378;-82
2021/08/23 01:02:18;;;;;;;;;;;;;;;-142.75;91.52;76975.81;4997037;28;19922;-83
2021/08/23 01:04:52;;;;;;;;;;;;;;;-142.75;91.40;76977.78;5001004;28;19943;-83
2021/08/23 01:07:18;;;;;;;;;;;;;;;-142.75;91.39;76983.69;5068839;28;20359;-82
2021/08/23 01:09:52;;;;;;;;;;;;;;;-142.75;91.38;76983.69;5003043;28;19914;-83
2021/08/23 01:12:17;;;;;;;;;;;;;;;-142.75;91.34;76989.59;5062817;28;19994;-82
2021/08/23 01:14:42;;;;;;;;;;;;;;;-142.75;91.32;76995.50;4999076;28;20332;-80
2021/08/23 01:17:07;;;;;;;;;;;;;;;-142.75;91.43;76999.44;5000233;28;19921;-81
2021/08/23 01:19:33;;;;;;;;;;;;;;;-142.75;91.58;77015.19;5007148;28;20379;-83
2021/08/23 01:22:02;;;;;;;;;;;;;;;-142.75;91.73;77017.16;5063459;28;19924;-82
2021/08/23 01:24:32;;;;;;;;;;;;;;;-142.75;91.88;77027.00;5003658;28;19920;-82
2021/08/23 01:26:59;;;;;;;;;;;;;;;-142.75;91.91;77028.97;5078167;28;19919;-82
2021/08/23 01:29:46;;;;;;;;;;;;;;;-142.75;92.01;77034.88;5073267;28;19913;-82
2021/08/23 01:32:12;;;;;;;;;;;;;;;-142.75;92.09;77038.81;5064291;28;20427;-82
2021/08/23 01:34:38;;;;;;;;;;;;;;;-142.75;92.17;77036.84;5073418;28;20007;-79
2021/08/23 01:37:04;;;;;;;;;;;;;;;-142.75;92.08;77038.81;5075276;28;19916;-83
2021/08/23 01:39:32;;;;;;;;;;;;;;;-142.75;92.20;77042.75;5068267;28;19914;-80
2021/08/23 01:41:57;;;;;;;;;;;;;;;-142.75;92.26;77042.75;5079765;28;20301;-80
2021/08/23 01:44:22;;;;;;;;;;;;;;;-142.75;91.95;77038.81;5068479;28;19913;-82
2021/08/23 01:46:47;;;;;;;;;;;;;;;-142.75;92.12;77046.69;5003448;28;19925;-81
2021/08/23 01:49:13;;;;;;;;;;;;;;;-142.75;91.96;77050.63;5072763;28;19974;-81
2021/08/23 01:51:38;;;;;;;;;;;;;;;-142.75;91.83;77028.97;5071256;28;19949;-82
2021/08/23 01:54:04;;;;;;;;;;;;;;;-142.75;91.29;77025.03;5069809;28;19916;-82
2021/08/23 01:56:30;;;;;;;;;;;;;;;-142.75;90.50;76997.47;5069548;28;19917;-82
2021/08/23 01:58:55;;;;;;;;;;;;;;;-142.75;90.21;77015.19;5005294;28;19920;-82
2021/08/23 02:01:20;;;;;;;;;;;;;;;-142.75;90.13;77021.09;5006903;28;19966;-79
2021/08/23 02:03:47;;;;;;;;;;;;;;;-142.75;90.20;77025.03;5006835;28;19966;-83
2021/08/23 02:06:12;;;;;;;;;;;;;;;-142.75;90.25;77027.00;5070610;28;19917;-82
2021/08/23 02:08:37;;;;;;;;;;;;;;;-142.75;90.38;77030.94;5070267;28;19920;-81
2021/08/23 02:11:02;;;;;;;;;;;;;;;-142.75;90.53;77044.72;4999592;28;19921;-80
2021/08/23 02:13:27;;;;;;;;;;;;;;;-142.75;90.69;77048.66;5001466;28;19936;-82
2021/08/23 02:15:53;;;;;;;;;;;;;;;-142.75;90.79;77050.63;5003253;28;19917;-82
2021/08/23 02:18:18;;;;;;;;;;;;;;;-142.75;90.77;77052.59;5067718;28;20324;-83
2021/08/23 02:20:43;;;;;;;;;;;;;;;-142.75;90.79;77056.53;4992585;28;19920;-83
2021/08/23 02:23:08;;;;;;;;;;;;;;;-142.75;90.71;77070.31;5069341;28;19921;-81
2021/08/23 02:25:33;;;;;;;;;;;;;;;-142.75;90.86;77078.19;5000510;28;20294;-81
2021/08/23 02:27:58;;;;;;;;;;;;;;;-142.75;90.97;77082.13;4994932;28;19913;-82
2021/08/23 02:30:24;;;;;;;;;;;;;;;-142.75;91.06;77088.03;4997120;28;20286;-81
2021/08/23 02:32:49;;;;;;;;;;;;;;;-142.75;91.01;77099.84;5066585;28;19936;-81
2021/08/23 02:35:15;;;;;;;;;;;;;;;-142.75;91.16;77109.69;5070440;28;19914;-81
2021/08/23 02:37:40;;;;;;;;;;;;;;;-142.75;91.13;77107.72;5067710;28;19917;-82
2021/08/23 02:40:05;;;;;;;;;;;;;;;-142.75;91.25;77113.63;5006043;28;19920;-81
2021/08/23 02:42:31;;;;;;;;;;;;;;;-142.75;91.24;77119.53;5075952;28;21860;-81
2021/08/23 02:44:56;;;;;;;;;;;;;;;-142.75;91.09;77117.56;5064398;28;19914;-79
2021/08/23 02:47:21;;;;;;;;;;;;;;;-142.75;90.93;77119.53;5003996;28;19947;-81
2021/08/23 02:49:46;;;;;;;;;;;;;;;-142.75;90.86;77127.41;5073535;28;19914;-81
2021/08/23 02:52:11;;;;;;;;;;;;;;;-142.75;90.69;77123.47;5065498;28;20338;-83
2021/08/23 02:54:37;;;;;;;;;;;;;;;-142.75;90.56;77121.50;5065321;28;19913;-81
2021/08/23 02:57:02;;;;;;;;;;;;;;;-142.75;90.44;77117.56;5070564;28;19966;-81
2021/08/23 02:59:27;;;;;;;;;;;;;;;-142.75;90.44;77135.28;4995802;28;19914;-81
2021/08/23 03:01:52;;;;;;;;;;;;;;;-142.75;90.46;77133.31;5001760;28;22198;-80
2021/08/23 03:04:18;;;;;;;;;;;;;;;-142.75;90.57;77139.22;4997414;28;19918;-80
2021/08/23 03:06:43;;;;;;;;;;;;;;;-142.75;90.34;77139.22;5005344;28;19963;-83
2021/08/23 03:09:08;;;;;;;;;;;;;;;-142.75;90.15;77143.16;4998402;28;19969;-81
2021/08/23 03:11:33;;;;;;;;;;;;;;;-142.75;90.21;77147.09;5063234;28;19995;-82
2021/08/23 03:13:58;;;;;;;;;;;;;;;-142.75;90.05;77145.13;4998040;28;19920;-81
2021/08/23 03:16:23;;;;;;;;;;;;;;;-142.75;89.88;77154.97;5078492;28;19918;-83
2021/08/23 03:18:49;;;;;;;;;;;;;;;-142.75;89.90;77145.13;5003195;28;19914;-79
2021/08/23 03:21:14;;;;;;;;;;;;;;;-142.75;89.89;77149.06;4999867;28;20007;-83
2021/08/23 03:23:39;;;;;;;;;;;;;;;-142.75;89.81;77149.06;5075422;28;19913;-80
2021/08/23 03:26:05;;;;;;;;;;;;;;;-142.75;89.77;77149.06;5002793;28;19921;-81
2021/08/23 03:28:30;;;;;;;;;;;;;;;-142.75;89.76;77154.97;5068344;28;19917;-81
2021/08/23 03:30:55;;;;;;;;;;;;;;;-142.75;89.81;77156.94;5071740;28;19913;-82
2021/08/23 03:33:20;;;;;;;;;;;;;;;-142.75;89.85;77162.84;5071879;28;19913;-82
2021/08/23 03:35:46;;;;;;;;;;;;;;;-142.75;89.96;77164.81;5066860;28;19943;-81
2021/08/23 03:40:39;;;;;;;;;;;;;;;-142.75;89.97;77162.84;4994588;28;20539;-79
2021/08/23 03:43:04;;;;;;;;;;;;;;;-142.75;89.86;77164.81;5016108;28;19924;-79
2021/08/23 03:45:29;;;;;;;;;;;;;;;-142.75;89.77;77164.81;5001910;28;19913;-80
2021/08/23 03:47:54;;;;;;;;;;;;;;;-142.75;89.72;77176.63;5006398;28;19921;-80
2021/08/23 03:50:19;;;;;;;;;;;;;;;-142.75;89.53;77182.53;5087284;28;19921;-80
2021/08/23 03:52:45;;;;;;;;;;;;;;;-142.75;89.45;77172.69;5004785;28;19913;-78
2021/08/23 03:55:10;;;;;;;;;;;;;;;-142.75;89.29;77170.72;5066608;28;19913;-78
2021/08/23 03:57:36;;;;;;;;;;;;;;;-142.75;89.05;77170.72;5069034;28;19953;-78
2021/08/23 04:00:04;;;;;;;;;;;;;;;-142.75;88.89;77168.75;5070853;28;19913;-79
2021/08/23 04:02:29;;;;;;;;;;;;;;;-142.75;88.79;77168.75;5005182;28;19913;-78
2021/08/23 04:04:54;;;;;;;;;;;;;;;-142.75;88.77;77172.69;5064675;28;19913;-79
2021/08/23 04:07:19;;;;;;;;;;;;;;;-142.75;88.74;77166.78;5003733;28;19974;-80
2021/08/23 04:09:45;;;;;;;;;;;;;;;-142.75;88.76;77174.66;5003228;28;19913;-81
2021/08/23 04:12:10;;;;;;;;;;;;;;;-142.75;88.90;77176.63;5069564;28;19957;-79
2021/08/23 04:14:35;;;;;;;;;;;;;;;-142.75;88.93;77176.63;5068176;28;20375;-79
2021/08/23 04:17:00;;;;;;;;;;;;;;;-142.75;88.64;77176.63;5066359;28;19971;-79
2021/08/23 04:19:25;;;;;;;;;;;;;;;-142.75;88.43;77184.50;5064509;28;20386;-78
2021/08/23 04:21:51;;;;;;;;;;;;;;;-142.75;88.45;77188.44;5072343;28;19921;-79
2021/08/23 04:24:16;;;;;;;;;;;;;;;-142.75;88.36;77188.44;4998967;28;20286;-79
2021/08/23 04:26:41;;;;;;;;;;;;;;;-142.75;88.06;77192.38;5002972;28;19979;-79
2021/08/23 04:29:06;;;;;;;;;;;;;;;-142.75;87.95;77200.25;5005974;28;19920;-79
2021/08/23 04:31:32;;;;;;;;;;;;;;;-142.75;88.06;77204.19;5066270;28;19921;-79
2021/08/23 04:33:57;;;;;;;;;;;;;;;-142.75;87.91;77202.22;5067493;28;20496;-79
2021/08/23 04:36:22;;;;;;;;;;;;;;;-142.75;87.59;77196.31;5000952;28;20004;-79
2021/08/23 04:38:48;;;;;;;;;;;;;;;-142.75;87.39;77198.28;4998960;28;19956;-79
2021/08/23 04:41:13;;;;;;;;;;;;;;;-142.75;87.15;77202.22;5068001;28;19925;-80
2021/08/23 04:43:38;;;;;;;;;;;;;;;-142.75;87.04;77206.16;4999335;28;19913;-81
2021/08/23 04:46:03;;;;;;;;;;;;;;;-142.75;86.91;77208.13;4997916;28;21697;-80
2021/08/23 04:48:28;;;;;;;;;;;;;;;-142.75;86.89;77216.00;5066944;28;19913;-79
2021/08/23 04:50:53;;;;;;;;;;;;;;;-142.75;86.75;77216.00;5003010;28;19913;-80
2021/08/23 04:53:19;;;;;;;;;;;;;;;-142.75;86.62;77219.94;4999532;28;19913;-80
2021/08/23 04:55:44;;;;;;;;;;;;;;;-142.75;86.59;77223.88;5070622;28;19961;-80
2021/08/23 04:58:09;;;;;;;;;;;;;;;-142.75;86.44;77227.81;5002836;28;19914;-80
2021/08/23 05:00:34;;;;;;;;;;;;;;;-142.75;86.31;77227.81;5061588;28;20410;-80
2021/08/23 05:02:59;;;;;;;;;;;;;;;-142.75;86.31;77231.75;5064731;28;19913;-80
2021/08/23 05:05:25;;;;;;;;;;;;;;;-142.75;86.38;77233.72;4998930;28;20367;-81
2021/08/23 05:07:50;;;;;;;;;;;;;;;-142.75;86.23;77227.81;5069221;28;19921;-79
2021/08/23 05:10:15;;;;;;;;;;;;;;;-142.75;86.17;77221.91;5002291;28;20335;-79
2021/08/23 05:12:40;;;;;;;;;;;;;;;-142.75;86.02;77217.97;5066146;28;19978;-80
2021/08/23 05:15:06;;;;;;;;;;;;;;;-142.75;85.88;77217.97;5062988;28;19914;-79
2021/08/23 05:17:31;;;;;;;;;;;;;;;-142.75;85.92;77227.81;5061785;28;19917;-79
2021/08/23 05:19:56;;;;;;;;;;;;;;;-142.75;86.04;77241.59;5001726;28;19964;-80
2021/08/23 05:22:22;;;;;;;;;;;;;;;-142.75;86.28;77235.69;5063424;28;19914;-79
2021/08/23 05:24:48;;;;;;;;;;;;;;;-142.75;86.51;77243.56;5066516;28;19956;-81
2021/08/23 05:27:13;;;;;;;;;;;;;;;-142.75;86.65;77247.50;5068479;28;19953;-80
2021/08/23 05:29:38;;;;;;;;;;;;;;;-142.75;86.78;77243.56;4998405;28;19913;-79
2021/08/23 05:32:03;;;;;;;;;;;;;;;-142.75;86.77;77251.44;5066027;28;19929;-80
2021/08/23 05:34:29;;;;;;;;;;;;;;;-142.75;86.57;77247.50;5068327;28;19913;-81
2021/08/23 05:36:54;;;;;;;;;;;;;;;-142.75;86.57;77259.31;5000831;28;19957;-80
2021/08/23 05:39:19;;;;;;;;;;;;;;;-142.75;86.38;77249.47;5000722;28;19920;-80
2021/08/23 05:41:44;;;;;;;;;;;;;;;-142.75;86.24;77243.56;5000585;28;20001;-79
2021/08/23 05:44:10;;;;;;;;;;;;;;;-142.75;85.88;77247.50;5067844;28;20017;-79
2021/08/23 05:46:35;;;;;;;;;;;;;;;-142.75;85.42;77243.56;4999931;28;19914;-79
2021/08/23 05:49:00;;;;;;;;;;;;;;;-142.75;85.26;77247.50;5005379;28;20294;-79
2021/08/23 05:51:25;;;;;;;;;;;;;;;-142.75;85.23;77253.41;5000924;28;19921;-80
2021/08/23 05:53:50;;;;;;;;;;;;;;;-142.75;85.14;77251.44;5064229;28;19917;-79
2021/08/23 05:56:15;;;;;;;;;;;;;;;-142.75;84.96;77251.44;5069398;28;19966;-78
2021/08/23 05:58:41;;;;;;;;;;;;;;;-142.75;84.67;77255.38;5068004;28;19913;-79
2021/08/23 06:01:06;;;;;;;;;;;;;;;-142.75;84.46;77251.44;5064103;28;19920;-79
2021/08/23 06:03:32;;;;;;;;;;;;;;;-142.75;84.13;77243.56;5004845;28;19921;-79
2021/08/23 06:06:02;;;;;;;;;;;;;;;-142.75;84.12;77243.56;5065129;28;19914;-78
2021/08/23 06:08:27;;;;;;;;;;;;;;;-142.75;84.01;77237.66;4999729;28;20378;-79
2021/08/23 06:10:52;;;;;;;;;;;;;;;-142.75;83.63;77239.63;5063121;28;19923;-80
2021/08/23 06:13:17;;;;;;;;;;;;;;;-142.75;83.49;77247.50;5001660;28;19921;-79
2021/08/23 06:15:43;;;;;;;;;;;;;;;-142.75;83.39;77243.56;5064995;28;19917;-79
2021/08/23 06:18:08;;;;;;;;;;;;;;;-142.75;83.32;77249.47;5061886;28;19921;-79
2021/08/23 06:20:33;;;;;;;;;;;;;;;-142.75;83.36;77251.44;4999973;28;20370;-81
2021/08/23 06:22:58;;;;;;;;;;;;;;;-142.75;83.42;77245.53;5067156;28;20400;-80
2021/08/23 06:25:24;;;;;;;;;;;;;;;-142.75;83.37;77249.47;5068651;28;19921;-79
2021/08/23 06:27:49;;;;;;;;;;;;;;;-142.75;83.28;77247.50;5063203;28;20013;-79
2021/08/23 06:30:14;;;;;;;;;;;;;;;-142.75;83.02;77257.34;5067465;28;19957;-80
2021/08/23 06:32:39;;;;;;;;;;;;;;;-142.75;82.95;77249.47;4995144;28;20403;-79
2021/08/23 06:35:05;;;;;;;;;;;;;;;-142.75;83.13;77251.44;5002008;28;19920;-80
2021/08/23 06:37:31;;;;;;;;;;;;;;;-142.75;83.14;77251.44;5062694;28;19964;-80
2021/08/23 06:39:56;;;;;;;;;;;;;;;-142.75;83.06;77251.44;5000904;28;19971;-81
2021/08/23 06:42:21;;;;;;;;;;;;;;;-142.75;82.92;77247.50;5062795;28;19914;-80
2021/08/23 06:44:47;;;;;;;;;;;;;;;-142.75;82.85;77247.50;5066660;28;19920;-79
2021/08/23 06:47:13;;;;;;;;;;;;;;;-142.75;82.65;77243.56;5000708;28;19921;-80
2021/08/23 06:49:38;;;;;;;;;;;;;;;-142.75;82.58;77241.59;5000980;28;19948;-79
2021/08/23 06:52:03;;;;;;;;;;;;;;;-142.75;82.48;77231.75;5068760;28;19946;-80
2021/08/23 06:54:29;;;;;;;;;;;;;;;-142.75;82.42;77217.97;5070995;28;19914;-80
2021/08/23 06:56:54;;;;;;;;;;;;;;;-142.75;82.53;77204.19;5001710;28;20320;-79
2021/08/23 06:59:20;;;;;;;;;;;;;;;-142.75;82.42;77172.69;5072940;28;19921;-79
2021/08/23 07:01:45;;;;;;;;;;;;;;;-142.75;81.48;77147.09;5071407;28;19917;-80
2021/08/23 07:04:10;;;;;;;;;;;;;;;-142.75;79.51;77101.81;5002171;28;19913;-80
2021/08/23 07:06:35;;;;;;;;;;;;;;;-142.75;77.81;77074.25;5063085;28;22286;-80
2021/08/23 07:09:00;;;;;;;;;;;;;;;-142.75;76.96;77056.53;5058959;28;19982;-81
2021/08/23 07:11:26;;;;;;;;;;;;;;;-142.75;76.55;77046.69;5061915;28;19914;-80
2021/08/23 07:13:51;;;;;;;;;;;;;;;-142.75;75.36;77038.81;4993803;28;19917;-81
2021/08/23 07:16:16;;;;;;;;;;;;;;;-142.75;75.02;77034.88;5064882;28;20416;-80
2021/08/23 07:18:41;;;;;;;;;;;;;;;-142.75;74.52;77019.13;5063741;28;19913;-81
2021/08/23 07:21:06;;;;;;;;;;;;;;;-142.75;73.95;77021.09;5004167;28;19921;-80
2021/08/23 07:23:32;;;;;;;;;;;;;;;-142.75;74.01;77038.81;5062818;28;19918;-80
2021/08/23 07:25:57;;;;;;;;;;;;;;;-142.75;73.59;77050.63;4994634;28;19959;-80
2021/08/23 07:28:22;;;;;;;;;;;;;;;-142.75;73.00;77048.66;5072127;28;20004;-80
2021/08/23 07:30:47;;;;;;;;;;;;;;;-142.75;73.37;77044.72;5069935;28;19913;-81
2021/08/23 07:33:13;;;;;;;;;;;;;;;-142.75;73.68;77038.81;5063673;28;20028;-80
2021/08/23 07:35:38;;;;;;;;;;;;;;;-142.75;73.45;77032.91;5061910;28;20295;-80
2021/08/23 07:38:03;;;;;;;;;;;;;;;-142.75;73.56;76997.47;5068999;28;19913;-80
2021/08/23 07:40:29;;;;;;;;;;;;;;;-142.75;73.28;76965.97;4995382;28;19914;-79
2021/08/23 07:42:54;;;;;;;;;;;;;;;-142.75;71.35;76930.53;5072378;28;19918;-79
2021/08/23 07:45:20;;;;;;;;;;;;;;;-142.75;71.97;76777.00;5062138;28;19913;-81
2021/08/23 07:47:45;;;;;;;;;;;;;;;-142.75;66.27;76712.03;5072376;28;19920;-80
2021/08/23 07:50:11;;;;;;;;;;;;;;;-142.75;62.94;76739.59;5064684;28;19913;-80
2021/08/23 07:52:38;;;;;;;;;;;;;;;-142.75;62.98;76786.84;5006025;28;19945;-80
2021/08/23 07:55:04;;;;;;;;;;;;;;;-142.75;64.17;76820.28;5068967;28;19918;-80
2021/08/23 07:57:29;;;;;;;;;;;;;;;-142.75;65.05;76865.56;4997537;28;19924;-80
2021/08/23 07:59:54;;;;;;;;;;;;;;;-142.75;66.03;76877.38;4996611;28;20000;-81
2021/08/23 08:02:19;;;;;;;;;;;;;;;-142.75;66.94;76887.22;5003444;28;20366;-79
2021/08/23 08:04:44;;;;;;;;;;;;;;;-142.75;67.44;76891.16;5002150;28;20286;-79
2021/08/23 08:07:10;;;;;;;;;;;;;;;-142.75;67.92;76893.13;5066972;28;19962;-79
2021/08/23 08:09:35;;;;;;;;;;;;;;;-142.75;68.36;76899.03;4993542;28;19980;-80
2021/08/23 08:12:01;;;;;;;;;;;;;;;-142.75;67.54;76897.06;4994643;28;19920;-80
2021/08/23 08:14:27;;;;;;;;;;;;;;;-142.75;67.87;76893.13;5061823;28;19917;-79
2021/08/23 08:16:52;;;;;;;;;;;;;;;-142.75;67.84;76897.06;5069114;28;19918;-81
2021/08/23 08:19:17;;;;;;;;;;;;;;;-142.75;68.34;76897.06;5004413;28;20332;-79
2021/08/23 08:21:42;;;;;;;;;;;;;;;-142.75;68.12;76902.97;5063712;28;20008;-80
2021/08/23 08:24:08;;;;;;;;;;;;;;;-142.75;67.52;76901.00;4997759;28;20423;-79
2021/08/23 08:26:33;;;;;;;;;;;;;;;-142.75;67.37;76910.84;4994490;28;19942;-80
2021/08/23 08:28:58;;;;;;;;;;;;;;;-142.75;66.51;76940.38;4996762;28;19918;-79
2021/08/23 08:31:23;;;;;;;;;;;;;;;-142.75;67.52;76952.19;4998595;28;19913;-79
2021/08/23 08:33:48;;;;;;;;;;;;;;;-142.75;67.20;76940.38;4995906;28;19917;-79
2021/08/23 08:36:14;;;;;;;;;;;;;;;-142.75;67.19;76916.75;4997426;28;20016;-78
2021/08/23 08:38:41;;;;;;;;;;;;;;;-142.75;68.06;76883.28;5068568;28;20351;-79
2021/08/23 08:41:06;;;;;;;;;;;;;;;-142.75;65.90;76869.50;5066769;28;20516;-80
2021/08/23 08:43:31;;;;;;;;;;;;;;;-142.75;65.25;76869.50;5071049;28;19920;-80
2021/08/23 08:45:56;;;;;;;;;;;;;;;-142.75;65.65;76885.25;4997850;28;20011;-79
2021/08/23 08:48:22;;;;;;;;;;;;;;;-142.75;66.28;76904.94;5001639;28;19917;-79
2021/08/23 08:50:48;;;;;;;;;;;;;;;-142.75;66.17;76922.66;4999065;28;20306;-79
2021/08/23 08:53:14;;;;;;;;;;;;;;;-142.75;65.15;76918.72;5004866;28;20371;-79
2021/08/23 08:55:39;;;;;;;;;;;;;;;-142.75;63.46;76897.06;5069908;28;19927;-79
2021/08/23 08:58:06;;;;;;;;;;;;;;;-142.75;63.06;76867.53;5068104;28;19945;-80
2021/08/23 09:00:37;;;;;;;;;;;;;;;-142.75;62.19;76847.84;5066604;28;19921;-79
2021/08/23 09:03:02;;;;;;;;;;;;;;;-142.75;61.69;76773.06;5067209;28;19926;-79
2021/08/23 09:05:38;;;;;;;;;;;;;;;-142.75;61.12;76727.78;5067210;28;20287;-79
2021/08/23 09:08:04;;;;;;;;;;;;;;;-142.75;60.45;76692.34;5077458;28;19918;-80
2021/08/23 09:10:29;;;;;;;;;;;;;;;-142.75;60.18;76688.41;5064602;28;19921;-79
2021/08/23 09:12:59;;;;;;;;;;;;;;;-142.75;58.85;76694.31;5060279;28;19913;-78
2021/08/23 09:15:24;;;;;;;;;;;;;;;-142.75;59.47;76696.28;5064191;28;19921;-78
2021/08/23 09:17:58;;;;;;;;;;;;;;;-142.75;59.53;76700.22;5067538;28;19937;-79
2021/08/23 09:20:23;;;;;;;;;;;;;;;-142.75;59.32;76696.28;5001106;28;19913;-79
2021/08/23 09:22:52;;;;;;;;;;;;;;;-142.75;59.27;76664.78;4998751;28;19914;-79
2021/08/23 09:25:23;;;;;;;;;;;;;;;-142.75;58.96;76662.81;5065703;28;20377;-78
2021/08/23 09:27:48;;;;;;;;;;;;;;;-142.75;57.74;76664.78;5074045;28;19920;-79
2021/08/23 09:30:14;;;;;;;;;;;;;;;-142.75;57.82;76664.78;4996275;28;19922;-80
2021/08/23 09:32:49;;;;;;;;;;;;;;;-142.75;57.42;76684.47;4995149;28;19923;-78
2021/08/23 09:35:24;;;;;;;;;;;;;;;-142.75;57.08;76712.03;5064847;28;20000;-79
2021/08/23 09:37:49;;;;;;;;;;;;;;;-142.75;56.88;76741.56;5060012;28;19962;-80
2021/08/23 09:40:17;;;;;;;;;;;;;;;-142.75;57.55;76755.34;4994719;28;20447;-79
2021/08/23 09:42:43;;;;;;;;;;;;;;;-142.75;59.90;76568.31;5078415;28;19974;-77
2021/08/23 09:45:15;;;;;;;;;;;;;;;-142.75;55.17;76353.78;5064460;28;19960;-79
2021/08/23 09:47:41;;;;;;;;;;;;;;;-142.75;51.65;76133.31;5060964;28;19914;-78
2021/08/23 09:50:13;;;;;;;;;;;;;;;-142.75;46.71;75956.19;5062182;28;19924;-78
2021/08/23 09:52:38;;;;;;;;;;;;;;;-142.75;42.91;75944.38;5054922;28;19928;-80
2021/08/23 09:55:06;;;;;;;;;;;;;;;-142.75;43.50;76060.50;5062898;28;20286;-79
2021/08/23 09:57:33;;;;;;;;;;;;;;;-142.75;45.46;76172.69;5065785;28;20302;-79
2021/08/23 09:59:59;;;;;;;;;;;;;;;-142.75;45.88;76166.78;4998151;28;19978;-79
2021/08/23 10:02:25;;;;;;;;;;;;;;;-142.75;46.46;76090.00;5000218;28;19921;-79
2021/08/23 10:04:51;;;;;;;;;;;;;;;-142.75;45.42;75938.47;4995452;28;19913;-79
2021/08/23 10:07:16;;;;;;;;;;;;;;;-142.75;41.89;75800.69;4990881;28;19920;-80
2021/08/23 10:09:43;;;;;;;;;;;;;;;-142.75;41.33;75684.56;4996708;28;19921;-80
2021/08/23 10:12:12;;;;;;;;;;;;;;;-142.75;39.33;75627.50;4993766;28;19913;-78
2021/08/23 10:14:37;;;;;;;;;;;;;;;-142.75;38.13;75562.56;5001687;28;19914;-80
2021/08/23 10:17:03;;;;;;;;;;;;;;;-142.75;37.75;75521.22;5001172;28;20016;-79
2021/08/23 10:19:28;;;;;;;;;;;;;;;-142.75;36.74;75487.78;5004536;28;19914;-79
2021/08/23 10:21:53;;;;;;;;;;;;;;;-142.75;35.85;75438.56;4998809;28;19963;-78
2021/08/23 10:24:23;;;;;;;;;;;;;;;-142.75;34.19;75485.81;4997835;28;20317;-78
2021/08/23 10:26:49;;;;;;;;;;;;;;;-142.75;33.49;75554.69;5063941;28;19921;-79
2021/08/23 10:29:15;;;;;;;;;;;;;;;-142.75;36.70;75546.81;5063694;28;20651;-78
2021/08/23 10:31:41;;;;;;;;;;;;;;;-142.75;35.87;75485.81;4993178;28;19921;-78
2021/08/23 10:34:30;;;;;;;;;;;;;;;-142.75;35.17;75440.53;5067918;28;19921;-78
2021/08/23 10:36:55;;;;;;;;;;;;;;;-142.75;35.01;75432.69;5063415;28;20371;-78
2021/08/23 10:39:27;;;;;;;;;;;;;;;-142.75;34.54;75416.94;5000358;28;19914;-79
2021/08/23 10:41:54;;;;;;;;;;;;;;;-142.75;34.50;75411.03;5000352;28;19918;-79
2021/08/23 10:44:29;;;;;;;;;;;;;;;-142.75;33.98;75409.06;4990365;28;19975;-78
2021/08/23 10:47:08;;;;;;;;;;;;;;;-142.75;34.01;75489.75;5066563;28;19913;-79
2021/08/23 10:49:38;;;;;;;;;;;;;;;-142.75;32.98;75430.72;4999973;28;19979;-77
2021/08/23 10:52:03;;;;;;;;;;;;;;;-142.75;34.41;75387.41;5062212;28;20574;-78
2021/08/23 10:54:34;;;;;;;;;;;;;;;-142.75;33.77;75361.84;5001243;28;20012;-78
2021/08/23 10:57:00;;;;;;;;;;;;;;;-142.75;34.58;75344.13;4993723;28;19975;-78
2021/08/23 10:59:35;;;;;;;;;;;;;;;-142.75;33.43;75346.09;5061485;28;19922;-78
2021/08/23 11:02:01;;;;;;;;;;;;;;;-142.75;33.37;75338.22;5002017;28;20038;-78
2021/08/23 11:04:31;;;;;;;;;;;;;;;-142.75;33.43;75334.28;5066668;28;19913;-77
2021/08/23 11:06:56;;;;;;;;;;;;;;;-142.75;33.30;75322.47;5067430;28;19952;-78
2021/08/23 11:09:29;;;;;;;;;;;;;;;-142.75;32.53;75346.09;5072686;28;19920;-78
2021/08/23 11:12:04;;;;;;;;;;;;;;;-142.75;33.72;75385.44;5001274;28;19945;-79
2021/08/23 11:14:40;;;;;;;;;;;;;;;-142.75;33.40;75377.56;4997100;28;19913;-78
2021/08/23 11:17:06;;;;;;;;;;;;;;;-142.75;33.11;75401.19;5065691;28;19987;-79
2021/08/23 11:19:36;;;;;;;;;;;;;;;-142.75;33.08;75444.47;4992566;28;20367;-78
2021/08/23 11:22:04;;;;;;;;;;;;;;;-142.75;34.02;75440.53;5062518;28;20012;-78
2021/08/23 11:24:34;;;;;;;;;;;;;;;-142.75;33.31;75395.28;5062460;28;19917;-78
2021/08/23 11:27:01;;;;;;;;;;;;;;;-142.75;34.30;75387.41;4994276;28;19913;-78
2021/08/23 11:29:30;;;;;;;;;;;;;;;-142.75;33.18;75428.75;5057864;28;19936;-78
2021/08/23 11:31:56;;;;;;;;;;;;;;;-142.75;34.03;75546.81;4993236;28;19913;-77
2021/08/23 11:34:23;;;;;;;;;;;;;;;-142.75;34.62;75594.06;4998910;28;19914;-78
2021/08/23 11:36:48;;;;;;;;;;;;;;;-142.75;35.57;75698.34;5005786;28;19925;-77
2021/08/23 11:39:13;;;;;;;;;;;;;;;-142.75;36.26;75664.91;5006912;28;19917;-77
2021/08/23 11:41:38;;;;;;;;;;;;;;;-142.75;36.05;75676.69;4995395;28;20359;-79
2021/08/23 11:44:04;;;;;;;;;;;;;;;-142.75;35.49;75680.63;4998594;28;19918;-78
2021/08/23 11:46:29;;;;;;;;;;;;;;;-142.75;35.55;75637.34;4994731;28;19913;-79
2021/08/23 11:48:54;;;;;;;;;;;;;;;-142.75;36.30;75676.69;5056286;28;19918;-78
2021/08/23 11:51:26;;;;;;;;;;;;;;;-142.75;36.38;75731.81;4996991;28;19920;-78
2021/08/23 11:53:51;;;;;;;;;;;;;;;-142.75;36.91;75794.78;5058401;28;19918;-78
2021/08/23 11:56:16;;;;;;;;;;;;;;;-142.75;37.09;75845.97;4991498;28;19970;-78
2021/08/23 11:58:41;;;;;;;;;;;;;;;-142.75;37.37;75875.47;5072747;28;19958;-78
2021/08/23 12:01:08;;;;;;;;;;;;;;;-142.75;38.04;75908.94;4995032;28;19913;-78
2021/08/23 12:03:33;;;;;;;;;;;;;;;-142.75;37.99;75940.44;5063163;28;19918;-78
2021/08/23 12:06:04;;;;;;;;;;;;;;;-142.75;38.62;75975.84;5001943;28;19918;-76
2021/08/23 12:08:31;;;;;;;;;;;;;;;-142.75;39.20;76007.34;4995956;28;19929;-78
2021/08/23 12:10:58;;;;;;;;;;;;;;;-142.75;40.26;76021.13;5074188;28;19919;-77
2021/08/23 12:13:24;;;;;;;;;;;;;;;-142.75;40.00;76050.66;5074319;28;20377;-77
2021/08/23 12:16:02;;;;;;;;;;;;;;;-142.75;41.41;76068.38;5004983;28;20371;-78
2021/08/23 12:18:34;;;;;;;;;;;;;;;-142.75;42.01;76078.19;5069145;28;20072;-77
2021/08/23 12:21:02;;;;;;;;;;;;;;;-142.75;41.46;76093.94;5063497;28;19957;-78
2021/08/23 12:23:27;;;;;;;;;;;;;;;-142.75;42.24;76095.91;5005681;28;20006;-77
2021/08/23 12:26:03;;;;;;;;;;;;;;;-142.75;43.06;76103.78;5069668;28;19971;-77